createdAt,value
2022-09-05T00:00:04.844Z,35.88
2022-09-05T00:02:43.078Z,38.47
2022-09-05T00:05:21.604Z,39.80
2022-09-05T00:08:03.014Z,36.55
2022-09-05T00:11:41.755Z,39.72
2022-09-05T00:14:01.495Z,37.25
2022-09-05T00:23:47.113Z,36.17
2022-09-05T00:24:29.051Z,38.75
2022-09-05T00:25:33.440Z,35.55
2022-09-05T00:28:26.910Z,35.58
2022-09-05T00:31:54.488Z,36.92
2022-09-05T00:34:16.030Z,39.25
2022-09-05T00:36:49.421Z,36.88
2022-09-05T00:39:41.024Z,38.92
2022-09-05T00:42:18.283Z,36.05
2022-09-05T00:45:05.833Z,36.63
2022-09-05T00:47:54.764Z,40.47
2022-09-05T00:50:40.080Z,40.30
2022-09-05T00:53:17.913Z,39.83
2022-09-05T00:56:01.331Z,39.92
2022-09-05T00:58:40.228Z,40.13
2022-09-05T01:01:51.385Z,40.92
2022-09-05T01:04:44.689Z,39.72
2022-09-05T01:07:33.153Z,40.58
2022-09-05T01:10:10.240Z,40.20
2022-09-05T01:13:10.412Z,39.10
2022-09-05T01:15:53.696Z,39.53
2022-09-05T01:18:31.063Z,38.90
2022-09-05T01:21:09.847Z,40.38
2022-09-05T01:24:14.800Z,42.33
2022-09-05T01:26:59.316Z,40.40
2022-09-05T01:29:46.699Z,39.67
2022-09-05T01:32:28.412Z,39.58
2022-09-05T01:35:17.875Z,41.05
2022-09-05T01:37:51.908Z,40.22
2022-09-05T01:40:53.670Z,41.85
2022-09-05T01:43:37.535Z,41.92
2022-09-05T01:46:42.261Z,39.90
2022-09-05T01:49:20.437Z,38.40
2022-09-05T01:52:15.478Z,40.53
2022-09-05T01:54:54.186Z,40.10
2022-09-05T01:57:40.582Z,38.22
2022-09-05T02:00:30.423Z,41.90
2022-09-05T02:03:15.741Z,34.92
2022-09-05T02:06:13.074Z,36.47
2022-09-05T02:08:49.077Z,38.53
2022-09-05T02:11:16.405Z,36.75
2022-09-05T02:14:24.331Z,38.75
2022-09-05T02:17:31.982Z,38.08
2022-09-05T02:20:23.519Z,38.00
2022-09-05T02:23:31.015Z,35.42
2022-09-05T02:26:05.572Z,38.00
2022-09-05T02:28:43.829Z,35.90
2022-09-05T02:31:25.104Z,34.92
2022-09-05T02:34:07.029Z,35.42
2022-09-05T02:37:00.837Z,35.00
2022-09-05T02:45:03.485Z,32.83
2022-09-05T02:45:18.445Z,32.75
2022-09-05T02:46:16.909Z,30.13
2022-09-05T02:49:13.983Z,30.93
2022-09-05T02:57:23.743Z,30.98
2022-09-05T02:57:35.240Z,29.45
2022-09-05T02:58:13.265Z,30.10
2022-09-05T03:01:01.417Z,30.00
2022-09-05T03:03:46.471Z,28.55
2022-09-05T03:06:35.121Z,28.55
2022-09-05T03:09:17.711Z,27.80
2022-09-05T03:12:28.987Z,27.05
2022-09-05T03:15:22.475Z,26.67
2022-09-05T03:18:20.006Z,25.70
2022-09-05T03:21:12.251Z,28.88
2022-09-05T03:26:43.457Z,25.65
2022-09-05T03:29:45.930Z,25.88
2022-09-05T03:32:40.408Z,25.33
2022-09-05T03:35:30.820Z,25.27
2022-09-05T03:38:34.760Z,25.30
2022-09-05T03:41:19.437Z,27.70
2022-09-05T03:44:14.760Z,24.08
2022-09-05T03:52:21.343Z,26.77
2022-09-05T03:57:07.264Z,25.30
2022-09-05T03:57:15.714Z,26.75
2022-09-05T03:59:02.014Z,28.60
2022-09-05T04:05:12.324Z,28.50
2022-09-05T04:08:13.866Z,28.13
2022-09-05T04:08:18.933Z,29.27
2022-09-05T04:10:50.552Z,29.05
2022-09-05T04:13:37.370Z,30.77
2022-09-05T04:16:32.631Z,30.25
2022-09-05T04:19:17.756Z,27.15
2022-09-05T04:22:11.681Z,30.05
2022-09-05T04:24:49.135Z,29.67
2022-09-05T04:27:37.976Z,28.75
2022-09-05T04:30:39.439Z,29.77
2022-09-05T04:33:36.383Z,27.50
2022-09-05T04:36:36.244Z,30.38
2022-09-05T04:39:09.539Z,27.40
2022-09-05T04:41:44.000Z,29.17
2022-09-05T04:44:17.321Z,32.95
2022-09-05T04:46:49.245Z,32.40
2022-09-05T04:49:24.291Z,31.73
2022-09-05T04:52:09.675Z,30.63
2022-09-05T04:54:51.072Z,31.38
2022-09-05T04:57:31.101Z,33.63
2022-09-05T05:02:35.154Z,33.40
2022-09-05T05:06:18.517Z,32.20
2022-09-05T05:06:37.881Z,31.33
2022-09-05T05:09:19.584Z,33.53
2022-09-05T05:18:00.615Z,34.25
2022-09-05T05:18:15.779Z,34.65
2022-09-05T05:18:36.464Z,35.45
2022-09-05T05:20:53.772Z,37.03
2022-09-05T05:23:39.403Z,33.42
2022-09-05T05:26:11.759Z,35.13
2022-09-05T05:28:50.554Z,35.47
2022-09-05T05:31:22.463Z,30.60
2022-09-05T05:33:52.008Z,32.85
2022-09-05T05:36:29.978Z,34.13
2022-09-05T05:39:12.945Z,34.58
2022-09-05T05:41:51.794Z,33.38
2022-09-05T05:44:26.245Z,32.13
2022-09-05T05:47:31.303Z,32.22
2022-09-05T05:50:35.076Z,33.10
2022-09-05T05:53:07.246Z,31.30
2022-09-05T05:56:01.639Z,34.40
2022-09-05T05:58:46.816Z,30.95
2022-09-05T06:01:37.176Z,31.48
2022-09-05T06:04:16.707Z,30.25
2022-09-05T06:07:04.841Z,29.83
2022-09-05T06:14:52.060Z,27.90
2022-09-05T06:14:55.982Z,29.80
2022-09-05T06:16:33.071Z,30.30
2022-09-05T06:19:10.641Z,29.80
2022-09-05T06:22:21.426Z,32.67
2022-09-05T06:25:36.629Z,27.20
2022-09-05T06:28:18.590Z,29.52
2022-09-05T06:31:30.577Z,32.10
2022-09-05T06:34:08.153Z,28.50
2022-09-05T06:36:58.464Z,28.92
2022-09-05T06:39:53.867Z,32.03
2022-09-05T06:42:43.665Z,32.53
2022-09-05T06:45:28.453Z,31.42
2022-09-05T06:48:04.208Z,29.52
2022-09-05T06:51:07.508Z,25.63
2022-09-05T06:53:35.258Z,28.33
2022-09-05T06:56:15.773Z,30.75
2022-09-05T06:59:02.704Z,27.92
2022-09-05T07:02:00.622Z,27.75
2022-09-05T07:05:23.893Z,19.53
2022-09-05T07:07:48.510Z,22.38
2022-09-05T07:10:39.732Z,23.02
2022-09-05T07:13:26.145Z,24.10
2022-09-05T07:16:10.892Z,26.92
2022-09-05T07:19:00.125Z,24.88
2022-09-05T07:21:43.118Z,22.92
2022-09-05T07:24:24.493Z,24.70
2022-09-05T07:27:29.779Z,24.60
2022-09-05T07:30:00.897Z,24.85
2022-09-05T07:32:29.787Z,23.92
2022-09-05T07:34:59.834Z,24.13
2022-09-05T07:37:36.903Z,25.58
2022-09-05T07:40:21.711Z,23.45
2022-09-05T07:43:25.787Z,23.73
2022-09-05T07:46:01.578Z,20.88
2022-09-05T07:48:34.833Z,20.42
2022-09-05T07:56:47.161Z,18.23
2022-09-05T07:56:58.566Z,19.85
2022-09-05T07:59:50.761Z,16.92
2022-09-05T08:02:17.327Z,19.48
2022-09-05T08:04:43.968Z,19.33
2022-09-05T08:07:49.086Z,18.42
2022-09-05T08:11:22.038Z,18.38
2022-09-05T08:13:46.626Z,18.73
2022-09-05T08:16:21.445Z,18.33
2022-09-05T08:18:54.307Z,18.38
2022-09-05T08:21:39.246Z,16.05
2022-09-05T08:24:24.641Z,15.52
2022-09-05T08:26:58.850Z,15.82
2022-09-05T08:29:30.897Z,13.55
2022-09-05T08:32:09.352Z,13.75
2022-09-05T08:35:11.234Z,15.07
2022-09-05T08:37:38.256Z,14.02
2022-09-05T08:40:30.546Z,14.70
2022-09-05T08:46:18.589Z,14.73
2022-09-05T08:46:39.790Z,15.30
2022-09-05T08:49:11.295Z,14.38
2022-09-05T08:51:55.306Z,14.07
2022-09-05T08:55:06.334Z,14.45
2022-09-05T08:57:45.432Z,14.40
2022-09-05T09:00:24.681Z,13.77
2022-09-05T09:03:04.284Z,13.25
2022-09-05T09:06:13.190Z,13.55
2022-09-05T09:09:10.404Z,13.77
2022-09-05T09:11:51.117Z,13.27
2022-09-05T09:14:30.888Z,12.20
2022-09-05T09:17:16.257Z,12.18
2022-09-05T09:20:11.987Z,13.43
2022-09-05T09:23:03.857Z,13.25
2022-09-05T09:25:39.691Z,12.85
2022-09-05T09:28:46.753Z,13.30
2022-09-05T09:31:22.768Z,12.38
2022-09-05T09:34:32.797Z,10.57
2022-09-05T09:37:31.945Z,12.20
2022-09-05T09:40:39.814Z,12.13
2022-09-05T09:43:27.308Z,10.95
2022-09-05T09:46:15.511Z,12.13
2022-09-05T09:49:03.140Z,12.38
2022-09-05T09:51:36.828Z,10.32
2022-09-05T09:54:03.221Z,10.05
2022-09-05T09:56:47.916Z,8.75
2022-09-05T09:59:54.291Z,10.98
2022-09-05T10:07:19.925Z,9.05
2022-09-05T10:10:38.326Z,9.07
2022-09-05T10:10:49.595Z,7.00
2022-09-05T10:12:37.024Z,6.68
2022-09-05T10:15:32.482Z,8.93
2022-09-05T10:18:32.595Z,6.75
2022-09-05T10:21:16.225Z,8.32
2022-09-05T10:23:52.227Z,7.47
2022-09-05T10:26:56.757Z,6.75
2022-09-05T10:29:37.718Z,6.85
2022-09-05T10:35:06.116Z,7.53
2022-09-05T10:35:33.812Z,7.07
2022-09-05T10:38:13.987Z,6.80
2022-09-05T10:41:21.537Z,5.97
2022-09-05T10:43:38.928Z,7.75
2022-09-05T10:46:50.770Z,6.93
2022-09-05T10:49:24.550Z,5.32
2022-09-05T10:52:40.041Z,4.95
2022-09-05T10:55:26.271Z,5.80
2022-09-05T10:57:58.990Z,5.35
2022-09-05T11:02:23.924Z,5.68
2022-09-05T11:03:50.747Z,5.80
2022-09-05T11:06:27.169Z,5.80
2022-09-05T11:09:06.994Z,5.22
2022-09-05T11:11:47.887Z,5.57
2022-09-05T11:14:32.164Z,6.18
2022-09-05T11:17:29.177Z,5.70
2022-09-05T11:20:26.107Z,6.70
2022-09-05T11:23:09.928Z,5.32
2022-09-05T11:25:40.626Z,5.28
2022-09-05T11:28:18.675Z,5.55
2022-09-05T11:30:53.327Z,4.97
2022-09-05T11:37:35.804Z,4.32
2022-09-05T11:40:00.279Z,4.25
2022-09-05T11:40:30.124Z,5.18
2022-09-05T11:42:57.191Z,3.80
2022-09-05T11:45:45.900Z,4.85
2022-09-05T11:48:27.507Z,4.15
2022-09-05T11:51:44.754Z,4.72
2022-09-05T11:54:29.052Z,4.95
2022-09-05T11:57:30.415Z,4.38
2022-09-05T12:00:33.705Z,5.53
2022-09-05T12:03:58.929Z,6.10
2022-09-05T12:06:50.143Z,6.28
2022-09-05T12:09:25.951Z,5.63
2022-09-05T12:12:34.145Z,5.38
2022-09-05T12:15:23.873Z,5.20
2022-09-05T12:18:21.538Z,5.05
2022-09-05T12:21:02.733Z,4.70
2022-09-05T12:24:28.561Z,4.40
2022-09-05T12:27:43.065Z,5.10
2022-09-05T12:29:48.475Z,4.75
2022-09-05T12:33:32.776Z,4.38
2022-09-05T12:40:56.977Z,5.25
2022-09-05T12:41:44.589Z,5.20
2022-09-05T12:44:38.664Z,4.95
2022-09-05T12:46:56.904Z,4.22
2022-09-05T12:49:39.469Z,5.22
2022-09-05T12:52:22.942Z,4.93
2022-09-05T12:54:57.088Z,5.00
2022-09-05T13:02:58.702Z,4.18
2022-09-05T13:03:14.547Z,4.13
2022-09-05T13:03:28.252Z,4.40
2022-09-05T13:06:24.922Z,4.50
2022-09-05T13:09:00.057Z,3.67
2022-09-05T13:14:49.096Z,4.07
2022-09-05T13:15:00.499Z,4.10
2022-09-05T13:17:13.935Z,4.15
2022-09-05T13:19:51.394Z,4.22
2022-09-05T13:22:22.477Z,4.70
2022-09-05T13:25:08.925Z,4.00
2022-09-05T13:27:42.299Z,3.92
2022-09-05T13:32:16.255Z,4.15
2022-09-05T13:38:00.413Z,3.72
2022-09-05T13:38:07.412Z,4.00
2022-09-05T13:39:06.055Z,3.80
2022-09-05T13:41:43.568Z,4.50
2022-09-05T13:44:26.573Z,3.78
2022-09-05T13:47:29.757Z,4.72
2022-09-05T13:50:10.367Z,4.05
2022-09-05T13:52:59.643Z,4.25
2022-09-05T13:55:45.662Z,4.90
2022-09-05T13:58:36.242Z,4.20
2022-09-05T14:01:17.501Z,4.75
2022-09-05T14:04:11.664Z,4.43
2022-09-05T14:10:35.597Z,4.07
2022-09-05T14:13:18.013Z,3.67
2022-09-05T14:15:58.990Z,4.18
2022-09-05T14:18:33.831Z,3.42
2022-09-05T14:21:16.300Z,3.78
2022-09-05T14:23:56.683Z,3.72
2022-09-05T14:26:43.965Z,4.43
2022-09-05T14:29:13.997Z,5.68
2022-09-05T14:37:34.936Z,4.13
2022-09-05T14:37:44.465Z,3.90
2022-09-05T14:38:09.365Z,3.45
2022-09-05T14:41:10.695Z,4.10
2022-09-05T14:43:56.996Z,3.42
2022-09-05T14:46:49.843Z,3.50
2022-09-05T14:49:34.519Z,4.03
2022-09-05T14:52:28.209Z,4.53
2022-09-05T15:02:39.148Z,3.95
2022-09-05T15:02:48.693Z,3.65
2022-09-05T15:06:35.438Z,4.00
2022-09-05T15:12:21.379Z,3.40
2022-09-05T15:14:45.081Z,4.00
2022-09-05T15:17:21.628Z,3.95
2022-09-05T15:20:06.399Z,4.43
2022-09-05T15:22:37.245Z,4.30
2022-09-05T15:25:17.944Z,4.63
2022-09-05T15:27:46.310Z,4.35
2022-09-05T15:30:35.802Z,3.90
2022-09-05T15:33:30.469Z,3.72
2022-09-05T15:35:59.342Z,3.63
2022-09-05T15:38:30.610Z,3.80
2022-09-05T15:41:17.540Z,4.47
2022-09-05T15:44:09.396Z,4.28
2022-09-05T15:46:59.261Z,4.10
2022-09-05T15:49:39.453Z,4.55
2022-09-05T15:52:18.121Z,4.22
2022-09-05T15:55:19.613Z,3.88
2022-09-05T15:57:54.085Z,4.80
2022-09-05T16:00:32.792Z,3.83
2022-09-05T16:04:12.824Z,5.18
2022-09-05T16:10:48.419Z,3.72
2022-09-05T16:10:50.569Z,3.20
2022-09-05T16:14:36.502Z,3.78
2022-09-05T16:23:13.469Z,6.25
2022-09-05T16:23:33.600Z,5.28
2022-09-05T16:23:41.453Z,4.05
2022-09-05T16:26:25.878Z,4.55
2022-09-05T16:28:58.238Z,5.60
2022-09-05T16:31:49.349Z,5.32
2022-09-05T16:34:31.902Z,3.95
2022-09-05T16:37:09.530Z,3.13
2022-09-05T16:39:41.505Z,4.05
2022-09-05T16:42:20.579Z,5.38
2022-09-05T16:44:57.768Z,4.28
2022-09-05T16:47:42.740Z,4.70
2022-09-05T16:50:34.486Z,5.38
2022-09-05T16:53:30.236Z,4.10
2022-09-05T16:56:03.244Z,4.88
2022-09-05T16:58:41.901Z,4.13
2022-09-05T17:01:30.216Z,3.70
2022-09-05T17:04:24.767Z,3.70
2022-09-05T17:06:57.508Z,4.22
2022-09-05T17:09:29.242Z,4.07
2022-09-05T17:12:02.240Z,4.38
2022-09-05T17:14:40.063Z,4.07
2022-09-05T17:17:43.949Z,4.65
2022-09-05T17:20:09.298Z,3.67
2022-09-05T17:25:05.427Z,3.92
2022-09-05T17:29:28.938Z,4.07
2022-09-05T17:29:43.224Z,3.97
2022-09-05T17:31:58.029Z,4.25
2022-09-05T17:34:34.374Z,4.55
2022-09-05T17:37:13.757Z,3.50
2022-09-05T17:40:11.942Z,3.85
2022-09-05T17:42:59.637Z,3.80
2022-09-05T17:45:39.178Z,4.07
2022-09-05T17:48:06.061Z,4.83
2022-09-05T17:50:43.791Z,3.53
2022-09-05T17:53:25.167Z,4.63
2022-09-05T17:55:54.584Z,3.60
2022-09-05T17:58:49.579Z,4.03
2022-09-05T18:01:26.905Z,4.25
2022-09-05T18:04:16.167Z,5.78
2022-09-05T18:06:52.805Z,9.10
2022-09-05T18:13:11.672Z,6.88
2022-09-05T18:15:27.352Z,4.65
2022-09-05T18:17:53.788Z,5.05
2022-09-05T18:26:44.731Z,4.05
2022-09-05T18:32:38.221Z,4.97
2022-09-05T18:35:26.656Z,3.95
2022-09-05T18:38:04.447Z,4.90
2022-09-05T18:40:39.290Z,4.65
2022-09-05T18:43:35.082Z,5.95
2022-09-05T18:46:22.443Z,4.75
2022-09-05T18:50:05.209Z,5.97
2022-09-05T18:52:07.401Z,5.57
2022-09-05T18:54:36.103Z,6.43
2022-09-05T18:57:27.218Z,6.78
2022-09-05T19:00:00.304Z,6.60
2022-09-05T19:03:08.263Z,7.30
2022-09-05T19:05:45.788Z,6.78
2022-09-05T19:08:31.942Z,5.93
2022-09-05T19:11:01.715Z,8.98
2022-09-05T19:13:49.382Z,7.38
2022-09-05T19:16:42.402Z,8.60
2022-09-05T19:19:16.164Z,6.70
2022-09-05T19:22:33.160Z,7.13
2022-09-05T19:24:45.766Z,6.80
2022-09-05T19:31:29.321Z,8.00
2022-09-05T19:36:47.283Z,7.43
2022-09-05T19:37:03.788Z,7.53
2022-09-05T19:37:05.137Z,8.82
2022-09-05T19:38:23.900Z,7.95
2022-09-05T19:47:34.344Z,7.82
2022-09-05T19:47:36.033Z,6.72
2022-09-05T19:47:45.336Z,7.75
2022-09-05T19:49:13.074Z,6.90
2022-09-05T19:51:41.265Z,6.65
2022-09-05T19:54:21.969Z,8.07
2022-09-05T19:59:19.972Z,8.68
2022-09-05T20:01:47.715Z,7.88
2022-09-05T20:04:18.709Z,8.57
2022-09-05T20:06:50.184Z,8.90
2022-09-05T20:09:22.386Z,11.38
2022-09-05T20:11:57.824Z,10.70
2022-09-05T20:14:36.604Z,11.95
2022-09-05T20:17:43.094Z,12.63
2022-09-05T20:20:12.443Z,13.88
2022-09-05T20:22:48.875Z,13.80
2022-09-05T20:25:35.317Z,12.38
2022-09-05T20:28:07.108Z,13.13
2022-09-05T20:30:41.305Z,13.20
2022-09-05T20:33:34.503Z,13.52
2022-09-05T20:38:51.949Z,15.98
2022-09-05T20:43:23.029Z,19.52
2022-09-05T20:44:50.437Z,18.52
2022-09-05T20:50:44.420Z,18.02
2022-09-05T20:54:15.844Z,18.63
2022-09-05T20:54:32.224Z,17.17
2022-09-05T20:56:10.265Z,16.65
2022-09-05T20:58:38.977Z,19.00
2022-09-05T21:01:32.514Z,16.45
2022-09-05T21:04:04.732Z,13.30
2022-09-05T21:06:34.538Z,17.80
2022-09-05T21:09:24.717Z,14.52
2022-09-05T21:14:21.497Z,16.42
2022-09-05T21:16:56.233Z,13.52
2022-09-05T21:19:27.816Z,18.65
2022-09-05T21:22:03.149Z,15.63
2022-09-05T21:24:30.090Z,18.02
2022-09-05T21:27:16.680Z,15.52
2022-09-05T21:29:43.739Z,16.58
2022-09-05T21:32:14.590Z,15.65
2022-09-05T21:34:48.407Z,15.18
2022-09-05T21:37:16.658Z,16.27
2022-09-05T21:39:59.623Z,16.08
2022-09-05T21:42:39.133Z,16.33
2022-09-05T21:47:39.510Z,15.70
2022-09-05T21:48:07.417Z,17.25
2022-09-05T21:50:41.139Z,17.08
2022-09-05T21:57:21.833Z,16.92
2022-09-05T21:59:29.949Z,18.40
2022-09-05T21:59:37.193Z,17.73
2022-09-05T22:01:51.770Z,20.45
2022-09-05T22:04:21.731Z,20.15
2022-09-05T22:06:48.910Z,20.35
2022-09-05T22:09:17.662Z,20.33
2022-09-05T22:11:50.024Z,18.48
2022-09-05T22:14:21.264Z,19.45
2022-09-05T22:16:50.681Z,21.48
2022-09-05T22:19:26.170Z,23.15
2022-09-05T22:22:18.205Z,22.45
2022-09-05T22:24:56.539Z,21.88
2022-09-05T22:27:26.301Z,21.52
2022-09-05T22:29:53.045Z,22.17
2022-09-05T22:32:34.584Z,22.75
2022-09-05T22:35:27.170Z,24.25
2022-09-05T22:37:55.302Z,22.48
2022-09-05T22:40:25.933Z,23.70
2022-09-05T22:43:00.706Z,25.20
2022-09-05T22:45:29.027Z,23.73
2022-09-05T22:47:55.891Z,24.98
2022-09-05T22:50:22.768Z,25.95
2022-09-05T22:52:49.434Z,25.08
2022-09-05T22:55:16.348Z,27.50
2022-09-05T22:57:42.847Z,27.85
2022-09-05T23:00:10.662Z,26.35
2022-09-05T23:02:37.225Z,28.60
2022-09-05T23:05:05.479Z,27.58
2022-09-05T23:07:32.600Z,28.58
2022-09-05T23:09:59.312Z,26.52
2022-09-05T23:12:25.898Z,28.67
2022-09-05T23:14:52.447Z,28.17
2022-09-05T23:17:18.953Z,26.70
2022-09-05T23:19:45.486Z,27.95
2022-09-05T23:22:11.932Z,26.50
2022-09-05T23:24:38.381Z,27.65
2022-09-05T23:27:04.821Z,29.60
2022-09-05T23:29:31.266Z,27.95
2022-09-05T23:31:57.706Z,29.00
2022-09-05T23:34:25.498Z,30.48
2022-09-05T23:36:51.948Z,30.15
2022-09-05T23:39:18.384Z,30.85
2022-09-05T23:41:44.947Z,31.38
2022-09-05T23:44:11.914Z,29.60
2022-09-05T23:46:40.278Z,31.42
2022-09-05T23:49:07.066Z,30.13
2022-09-05T23:51:33.753Z,32.90
2022-09-05T23:54:00.252Z,34.17
2022-09-05T23:56:27.601Z,33.60
2022-09-05T23:58:54.041Z,28.17
